sensor_id;sensor_type;location;lat;lon;timestamp;P1;durP1;ratioP1;P2;durP2;ratioP2
76935;SDS011;65881;52.438;16.744;2023-10-31T00:00:00;26.58;;;20.33;;
76935;SDS011;65881;52.438;16.744;2023-10-31T00:02:25;26.42;;;19.90;;
76935;SDS011;65881;52.438;16.744;2023-10-31T00:04:51;28.27;;;18.70;;
76935;SDS011;65881;52.438;16.744;2023-10-31T00:07:16;27.52;;;19.67;;
76935;SDS011;65881;52.438;16.744;2023-10-31T00:09:42;27.88;;;19.02;;
76935;SDS011;65881;52.438;16.744;2023-10-31T00:12:08;26.42;;;19.17;;
76935;SDS011;65881;52.438;16.744;2023-10-31T00:14:33;30.08;;;17.88;;
76935;SDS011;65881;52.438;16.744;2023-10-31T00:16:59;23.85;;;18.65;;
76935;SDS011;65881;52.438;16.744;2023-10-31T00:19:25;24.50;;;17.73;;
76935;SDS011;65881;52.438;16.744;2023-10-31T00:21:50;32.17;;;20.52;;
76935;SDS011;65881;52.438;16.744;2023-10-31T00:24:16;25.40;;;17.00;;
76935;SDS011;65881;52.438;16.744;2023-10-31T00:26:42;27.20;;;18.05;;
76935;SDS011;65881;52.438;16.744;2023-10-31T00:29:07;25.98;;;17.05;;
76935;SDS011;65881;52.438;16.744;2023-10-31T00:31:33;25.25;;;17.00;;
76935;SDS011;65881;52.438;16.744;2023-10-31T00:34:00;23.10;;;18.52;;
76935;SDS011;65881;52.438;16.744;2023-10-31T00:36:26;25.27;;;18.88;;
76935;SDS011;65881;52.438;16.744;2023-10-31T00:38:52;28.98;;;17.40;;
76935;SDS011;65881;52.438;16.744;2023-10-31T00:41:18;29.30;;;16.63;;
76935;SDS011;65881;52.438;16.744;2023-10-31T00:43:43;20.90;;;15.90;;
76935;SDS011;65881;52.438;16.744;2023-10-31T00:46:09;20.67;;;15.25;;
76935;SDS011;65881;52.438;16.744;2023-10-31T00:48:34;23.30;;;18.38;;
76935;SDS011;65881;52.438;16.744;2023-10-31T00:51:04;26.05;;;18.02;;
76935;SDS011;65881;52.438;16.744;2023-10-31T00:53:30;22.13;;;15.77;;
76935;SDS011;65881;52.438;16.744;2023-10-31T00:55:56;23.58;;;16.48;;
76935;SDS011;65881;52.438;16.744;2023-10-31T00:58:21;25.85;;;17.00;;
76935;SDS011;65881;52.438;16.744;2023-10-31T01:00:47;20.77;;;16.13;;
76935;SDS011;65881;52.438;16.744;2023-10-31T01:03:13;21.20;;;16.20;;
76935;SDS011;65881;52.438;16.744;2023-10-31T01:05:38;20.17;;;15.52;;
76935;SDS011;65881;52.438;16.744;2023-10-31T01:08:04;20.98;;;16.08;;
76935;SDS011;65881;52.438;16.744;2023-10-31T01:10:30;28.35;;;17.23;;
76935;SDS011;65881;52.438;16.744;2023-10-31T01:12:56;25.35;;;17.75;;
76935;SDS011;65881;52.438;16.744;2023-10-31T01:15:21;24.85;;;16.30;;
76935;SDS011;65881;52.438;16.744;2023-10-31T01:17:47;20.08;;;14.68;;
76935;SDS011;65881;52.438;16.744;2023-10-31T01:20:13;22.67;;;16.13;;
76935;SDS011;65881;52.438;16.744;2023-10-31T01:22:38;21.63;;;15.43;;
76935;SDS011;65881;52.438;16.744;2023-10-31T01:25:04;25.30;;;16.23;;
76935;SDS011;65881;52.438;16.744;2023-10-31T01:27:30;19.67;;;14.82;;
76935;SDS011;65881;52.438;16.744;2023-10-31T01:29:55;22.42;;;14.77;;
76935;SDS011;65881;52.438;16.744;2023-10-31T01:32:21;26.92;;;16.58;;
76935;SDS011;65881;52.438;16.744;2023-10-31T01:34:47;23.13;;;14.38;;
76935;SDS011;65881;52.438;16.744;2023-10-31T01:37:12;22.60;;;16.05;;
76935;SDS011;65881;52.438;16.744;2023-10-31T01:39:39;26.38;;;15.55;;
76935;SDS011;65881;52.438;16.744;2023-10-31T01:42:05;27.80;;;16.45;;
76935;SDS011;65881;52.438;16.744;2023-10-31T01:44:31;23.30;;;15.05;;
76935;SDS011;65881;52.438;16.744;2023-10-31T01:46:57;19.88;;;14.98;;
76935;SDS011;65881;52.438;16.744;2023-10-31T01:49:22;21.52;;;15.38;;
76935;SDS011;65881;52.438;16.744;2023-10-31T01:51:48;22.58;;;14.38;;
76935;SDS011;65881;52.438;16.744;2023-10-31T01:54:14;20.92;;;14.38;;
76935;SDS011;65881;52.438;16.744;2023-10-31T01:56:40;19.40;;;14.98;;
76935;SDS011;65881;52.438;16.744;2023-10-31T01:59:07;21.35;;;14.38;;
76935;SDS011;65881;52.438;16.744;2023-10-31T02:01:37;23.25;;;14.82;;
76935;SDS011;65881;52.438;16.744;2023-10-31T02:04:05;21.17;;;15.73;;
76935;SDS011;65881;52.438;16.744;2023-10-31T02:06:30;20.10;;;16.25;;
76935;SDS011;65881;52.438;16.744;2023-10-31T02:08:56;16.95;;;14.13;;
76935;SDS011;65881;52.438;16.744;2023-10-31T02:11:22;19.60;;;15.00;;
76935;SDS011;65881;52.438;16.744;2023-10-31T02:13:48;23.55;;;15.48;;
76935;SDS011;65881;52.438;16.744;2023-10-31T02:16:13;18.40;;;13.90;;
76935;SDS011;65881;52.438;16.744;2023-10-31T02:18:39;20.10;;;14.00;;
76935;SDS011;65881;52.438;16.744;2023-10-31T02:21:05;20.55;;;14.60;;
76935;SDS011;65881;52.438;16.744;2023-10-31T02:23:30;20.13;;;14.93;;
76935;SDS011;65881;52.438;16.744;2023-10-31T02:25:56;20.05;;;14.55;;
76935;SDS011;65881;52.438;16.744;2023-10-31T02:28:22;19.27;;;14.75;;
76935;SDS011;65881;52.438;16.744;2023-10-31T02:30:52;21.10;;;15.30;;
76935;SDS011;65881;52.438;16.744;2023-10-31T02:33:19;17.58;;;14.57;;
76935;SDS011;65881;52.438;16.744;2023-10-31T02:35:46;21.23;;;14.02;;
76935;SDS011;65881;52.438;16.744;2023-10-31T02:38:12;21.30;;;14.23;;
76935;SDS011;65881;52.438;16.744;2023-10-31T02:40:40;20.48;;;14.05;;
76935;SDS011;65881;52.438;16.744;2023-10-31T02:43:06;18.85;;;14.10;;
76935;SDS011;65881;52.438;16.744;2023-10-31T02:45:32;18.98;;;13.32;;
76935;SDS011;65881;52.438;16.744;2023-10-31T02:47:57;20.30;;;13.07;;
76935;SDS011;65881;52.438;16.744;2023-10-31T02:50:29;15.75;;;13.75;;
76935;SDS011;65881;52.438;16.744;2023-10-31T02:52:55;21.73;;;14.35;;
76935;SDS011;65881;52.438;16.744;2023-10-31T02:55:21;19.27;;;13.02;;
76935;SDS011;65881;52.438;16.744;2023-10-31T02:57:46;18.17;;;12.85;;
76935;SDS011;65881;52.438;16.744;2023-10-31T03:00:14;18.30;;;13.20;;
76935;SDS011;65881;52.438;16.744;2023-10-31T03:02:40;18.77;;;13.27;;
76935;SDS011;65881;52.438;16.744;2023-10-31T03:05:06;24.80;;;13.43;;
76935;SDS011;65881;52.438;16.744;2023-10-31T03:07:32;22.77;;;15.57;;
76935;SDS011;65881;52.438;16.744;2023-10-31T03:09:58;19.40;;;14.15;;
76935;SDS011;65881;52.438;16.744;2023-10-31T03:12:24;19.70;;;14.45;;
76935;SDS011;65881;52.438;16.744;2023-10-31T03:14:49;17.52;;;14.02;;
76935;SDS011;65881;52.438;16.744;2023-10-31T03:17:15;16.77;;;13.20;;
76935;SDS011;65881;52.438;16.744;2023-10-31T03:19:40;19.45;;;12.88;;
76935;SDS011;65881;52.438;16.744;2023-10-31T03:22:06;20.05;;;12.48;;
76935;SDS011;65881;52.438;16.744;2023-10-31T03:24:32;21.30;;;13.60;;
76935;SDS011;65881;52.438;16.744;2023-10-31T03:26:57;18.40;;;13.07;;
76935;SDS011;65881;52.438;16.744;2023-10-31T03:29:23;16.13;;;12.52;;
76935;SDS011;65881;52.438;16.744;2023-10-31T03:31:49;19.27;;;13.48;;
76935;SDS011;65881;52.438;16.744;2023-10-31T03:34:14;13.10;;;11.65;;
76935;SDS011;65881;52.438;16.744;2023-10-31T03:36:40;15.90;;;13.10;;
76935;SDS011;65881;52.438;16.744;2023-10-31T03:39:05;18.67;;;12.88;;
76935;SDS011;65881;52.438;16.744;2023-10-31T03:41:31;18.17;;;13.23;;
76935;SDS011;65881;52.438;16.744;2023-10-31T03:43:57;19.17;;;13.38;;
76935;SDS011;65881;52.438;16.744;2023-10-31T03:46:22;16.65;;;12.85;;
76935;SDS011;65881;52.438;16.744;2023-10-31T03:48:48;19.35;;;13.07;;
76935;SDS011;65881;52.438;16.744;2023-10-31T03:51:14;18.48;;;12.85;;
76935;SDS011;65881;52.438;16.744;2023-10-31T03:53:39;20.05;;;12.55;;
76935;SDS011;65881;52.438;16.744;2023-10-31T03:56:05;17.70;;;12.98;;
76935;SDS011;65881;52.438;16.744;2023-10-31T03:58:31;16.20;;;12.07;;
76935;SDS011;65881;52.438;16.744;2023-10-31T04:00:56;20.88;;;14.25;;
76935;SDS011;65881;52.438;16.744;2023-10-31T04:03:22;20.60;;;13.75;;
76935;SDS011;65881;52.438;16.744;2023-10-31T04:05:47;18.25;;;12.95;;
76935;SDS011;65881;52.438;16.744;2023-10-31T04:08:13;20.15;;;14.13;;
76935;SDS011;65881;52.438;16.744;2023-10-31T04:10:39;18.10;;;13.15;;
76935;SDS011;65881;52.438;16.744;2023-10-31T04:13:04;16.75;;;11.70;;
76935;SDS011;65881;52.438;16.744;2023-10-31T04:15:30;19.80;;;13.23;;
76935;SDS011;65881;52.438;16.744;2023-10-31T04:17:56;20.38;;;13.32;;
76935;SDS011;65881;52.438;16.744;2023-10-31T04:20:21;20.05;;;13.35;;
76935;SDS011;65881;52.438;16.744;2023-10-31T04:22:47;20.77;;;13.35;;
76935;SDS011;65881;52.438;16.744;2023-10-31T04:25:13;19.25;;;15.15;;
76935;SDS011;65881;52.438;16.744;2023-10-31T04:27:39;18.95;;;13.48;;
76935;SDS011;65881;52.438;16.744;2023-10-31T04:30:05;17.17;;;12.63;;
76935;SDS011;65881;52.438;16.744;2023-10-31T04:32:31;20.77;;;13.68;;
76935;SDS011;65881;52.438;16.744;2023-10-31T04:34:57;25.08;;;14.10;;
76935;SDS011;65881;52.438;16.744;2023-10-31T04:37:22;19.10;;;13.38;;
76935;SDS011;65881;52.438;16.744;2023-10-31T04:39:48;16.13;;;13.00;;
76935;SDS011;65881;52.438;16.744;2023-10-31T04:42:14;21.38;;;14.25;;
76935;SDS011;65881;52.438;16.744;2023-10-31T04:44:39;21.23;;;13.80;;
76935;SDS011;65881;52.438;16.744;2023-10-31T04:47:05;21.60;;;14.70;;
76935;SDS011;65881;52.438;16.744;2023-10-31T04:49:34;19.30;;;12.63;;
76935;SDS011;65881;52.438;16.744;2023-10-31T04:52:00;16.92;;;13.05;;
76935;SDS011;65881;52.438;16.744;2023-10-31T05:23:34;29.35;;;15.07;;
76935;SDS011;65881;52.438;16.744;2023-10-31T05:32:52;28.55;;;15.80;;
76935;SDS011;65881;52.438;16.744;2023-10-31T07:36:11;18.13;;;14.77;;
76935;SDS011;65881;52.438;16.744;2023-10-31T07:38:46;17.92;;;13.77;;
76935;SDS011;65881;52.438;16.744;2023-10-31T08:46:30;12.55;;;10.27;;
76935;SDS011;65881;52.438;16.744;2023-10-31T10:29:39;6.45;;;5.70;;
76935;SDS011;65881;52.438;16.744;2023-10-31T10:32:55;8.10;;;5.18;;
76935;SDS011;65881;52.438;16.744;2023-10-31T13:36:57;3.55;;;2.53;;
76935;SDS011;65881;52.438;16.744;2023-10-31T13:40:16;2.30;;;2.03;;
76935;SDS011;65881;52.438;16.744;2023-10-31T14:00:56;3.85;;;2.42;;
76935;SDS011;65881;52.438;16.744;2023-10-31T14:39:58;5.68;;;2.75;;
76935;SDS011;65881;52.438;16.744;2023-10-31T14:42:45;3.58;;;2.30;;
76935;SDS011;65881;52.438;16.744;2023-10-31T15:24:20;3.95;;;2.83;;
76935;SDS011;65881;52.438;16.744;2023-10-31T15:37:21;6.32;;;3.08;;
76935;SDS011;65881;52.438;16.744;2023-10-31T15:40:50;4.57;;;2.65;;
76935;SDS011;65881;52.438;16.744;2023-10-31T15:52:39;6.05;;;2.67;;
76935;SDS011;65881;52.438;16.744;2023-10-31T15:55:58;5.70;;;2.65;;
76935;SDS011;65881;52.438;16.744;2023-10-31T16:02:43;4.50;;;2.25;;
76935;SDS011;65881;52.438;16.744;2023-10-31T16:05:55;3.33;;;2.33;;
76935;SDS011;65881;52.438;16.744;2023-10-31T16:08:24;3.13;;;2.25;;
76935;SDS011;65881;52.438;16.744;2023-10-31T16:10:50;3.30;;;2.33;;
76935;SDS011;65881;52.438;16.744;2023-10-31T16:13:16;3.78;;;2.53;;
76935;SDS011;65881;52.438;16.744;2023-10-31T16:15:41;5.43;;;2.65;;
76935;SDS011;65881;52.438;16.744;2023-10-31T16:18:07;4.30;;;2.33;;
76935;SDS011;65881;52.438;16.744;2023-10-31T16:20:36;3.47;;;2.40;;
76935;SDS011;65881;52.438;16.744;2023-10-31T16:23:06;3.75;;;2.85;;
76935;SDS011;65881;52.438;16.744;2023-10-31T16:25:31;8.32;;;3.00;;
76935;SDS011;65881;52.438;16.744;2023-10-31T16:27:59;3.25;;;2.25;;
76935;SDS011;65881;52.438;16.744;2023-10-31T16:30:25;5.90;;;3.10;;
76935;SDS011;65881;52.438;16.744;2023-10-31T16:46:24;6.35;;;2.40;;
76935;SDS011;65881;52.438;16.744;2023-10-31T16:49:08;2.85;;;2.30;;
76935;SDS011;65881;52.438;16.744;2023-10-31T16:52:05;3.35;;;2.33;;
76935;SDS011;65881;52.438;16.744;2023-10-31T17:04:59;3.72;;;2.15;;
76935;SDS011;65881;52.438;16.744;2023-10-31T17:28:14;3.92;;;2.38;;
76935;SDS011;65881;52.438;16.744;2023-10-31T17:31:08;3.25;;;2.25;;
76935;SDS011;65881;52.438;16.744;2023-10-31T17:33:37;3.33;;;1.80;;
76935;SDS011;65881;52.438;16.744;2023-10-31T17:39:19;3.22;;;1.88;;
76935;SDS011;65881;52.438;16.744;2023-10-31T17:42:26;3.05;;;2.47;;
76935;SDS011;65881;52.438;16.744;2023-10-31T17:45:44;2.72;;;1.90;;
76935;SDS011;65881;52.438;16.744;2023-10-31T17:57:56;3.25;;;2.00;;
76935;SDS011;65881;52.438;16.744;2023-10-31T18:03:48;2.17;;;1.50;;
76935;SDS011;65881;52.438;16.744;2023-10-31T18:26:38;3.55;;;2.50;;
76935;SDS011;65881;52.438;16.744;2023-10-31T18:39:19;3.72;;;2.22;;
76935;SDS011;65881;52.438;16.744;2023-10-31T19:20:04;2.63;;;1.50;;
76935;SDS011;65881;52.438;16.744;2023-10-31T19:22:30;2.63;;;2.05;;
76935;SDS011;65881;52.438;16.744;2023-10-31T19:25:20;2.17;;;1.77;;
76935;SDS011;65881;52.438;16.744;2023-10-31T19:27:48;1.73;;;1.60;;
76935;SDS011;65881;52.438;16.744;2023-10-31T19:37:21;4.30;;;2.40;;
76935;SDS011;65881;52.438;16.744;2023-10-31T19:39:49;2.67;;;2.22;;
76935;SDS011;65881;52.438;16.744;2023-10-31T19:42:23;3.50;;;2.17;;
76935;SDS011;65881;52.438;16.744;2023-10-31T19:48:20;3.15;;;2.10;;
76935;SDS011;65881;52.438;16.744;2023-10-31T20:07:12;2.80;;;2.15;;
76935;SDS011;65881;52.438;16.744;2023-10-31T20:10:34;2.60;;;2.00;;
76935;SDS011;65881;52.438;16.744;2023-10-31T20:23:41;2.67;;;1.83;;
76935;SDS011;65881;52.438;16.744;2023-10-31T20:43:07;4.85;;;2.00;;
76935;SDS011;65881;52.438;16.744;2023-10-31T20:45:42;3.53;;;2.10;;
76935;SDS011;65881;52.438;16.744;2023-10-31T20:51:19;2.20;;;2.00;;
76935;SDS011;65881;52.438;16.744;2023-10-31T20:53:59;2.10;;;1.90;;
76935;SDS011;65881;52.438;16.744;2023-10-31T20:56:25;2.03;;;1.83;;
76935;SDS011;65881;52.438;16.744;2023-10-31T20:59:30;2.13;;;1.77;;
76935;SDS011;65881;52.438;16.744;2023-10-31T21:02:25;3.10;;;2.10;;
76935;SDS011;65881;52.438;16.744;2023-10-31T21:04:51;2.10;;;1.80;;
76935;SDS011;65881;52.438;16.744;2023-10-31T21:07:16;2.00;;;1.80;;
76935;SDS011;65881;52.438;16.744;2023-10-31T21:09:43;3.45;;;1.90;;
76935;SDS011;65881;52.438;16.744;2023-10-31T21:12:14;4.47;;;2.05;;
76935;SDS011;65881;52.438;16.744;2023-10-31T21:14:49;2.13;;;1.80;;
76935;SDS011;65881;52.438;16.744;2023-10-31T21:17:16;1.88;;;1.65;;
76935;SDS011;65881;52.438;16.744;2023-10-31T21:19:44;6.00;;;2.28;;
76935;SDS011;65881;52.438;16.744;2023-10-31T21:22:12;2.55;;;2.35;;
76935;SDS011;65881;52.438;16.744;2023-10-31T21:24:40;5.75;;;2.10;;
76935;SDS011;65881;52.438;16.744;2023-10-31T21:27:06;2.28;;;1.90;;
76935;SDS011;65881;52.438;16.744;2023-10-31T21:33:00;3.03;;;2.40;;
76935;SDS011;65881;52.438;16.744;2023-10-31T21:35:45;3.25;;;2.20;;
76935;SDS011;65881;52.438;16.744;2023-10-31T21:38:13;3.90;;;2.30;;
76935;SDS011;65881;52.438;16.744;2023-10-31T21:40:38;3.08;;;2.15;;
76935;SDS011;65881;52.438;16.744;2023-10-31T21:43:04;2.88;;;2.30;;
76935;SDS011;65881;52.438;16.744;2023-10-31T21:45:30;2.97;;;2.08;;
76935;SDS011;65881;52.438;16.744;2023-10-31T21:47:58;2.92;;;2.22;;
76935;SDS011;65881;52.438;16.744;2023-10-31T21:50:44;3.30;;;2.50;;
76935;SDS011;65881;52.438;16.744;2023-10-31T21:56:24;4.20;;;3.25;;
76935;SDS011;65881;52.438;16.744;2023-10-31T21:58:50;7.28;;;3.30;;
76935;SDS011;65881;52.438;16.744;2023-10-31T22:01:15;5.43;;;3.92;;
76935;SDS011;65881;52.438;16.744;2023-10-31T22:03:41;4.82;;;4.03;;
76935;SDS011;65881;52.438;16.744;2023-10-31T22:06:07;6.50;;;4.00;;
76935;SDS011;65881;52.438;16.744;2023-10-31T22:08:39;8.40;;;5.28;;
76935;SDS011;65881;52.438;16.744;2023-10-31T22:11:05;7.38;;;5.65;;
76935;SDS011;65881;52.438;16.744;2023-10-31T22:13:31;6.57;;;5.43;;
76935;SDS011;65881;52.438;16.744;2023-10-31T22:16:02;7.95;;;5.90;;
76935;SDS011;65881;52.438;16.744;2023-10-31T22:18:28;6.95;;;5.63;;
76935;SDS011;65881;52.438;16.744;2023-10-31T22:20:54;7.55;;;5.70;;
76935;SDS011;65881;52.438;16.744;2023-10-31T22:23:20;7.15;;;5.50;;
76935;SDS011;65881;52.438;16.744;2023-10-31T22:25:46;5.53;;;4.90;;
76935;SDS011;65881;52.438;16.744;2023-10-31T22:28:11;7.20;;;5.15;;
76935;SDS011;65881;52.438;16.744;2023-10-31T22:30:40;8.90;;;5.88;;
76935;SDS011;65881;52.438;16.744;2023-10-31T22:33:09;6.95;;;4.90;;
76935;SDS011;65881;52.438;16.744;2023-10-31T22:35:38;6.40;;;4.85;;
76935;SDS011;65881;52.438;16.744;2023-10-31T22:38:03;7.28;;;4.47;;
76935;SDS011;65881;52.438;16.744;2023-10-31T22:41:15;6.65;;;3.88;;
76935;SDS011;65881;52.438;16.744;2023-10-31T22:49:39;9.80;;;4.72;;
76935;SDS011;65881;52.438;16.744;2023-10-31T22:52:07;5.80;;;3.70;;
76935;SDS011;65881;52.438;16.744;2023-10-31T22:54:45;5.28;;;4.05;;
76935;SDS011;65881;52.438;16.744;2023-10-31T22:57:13;6.97;;;4.30;;
76935;SDS011;65881;52.438;16.744;2023-10-31T22:59:42;7.68;;;4.00;;
76935;SDS011;65881;52.438;16.744;2023-10-31T23:02:07;6.20;;;4.20;;
76935;SDS011;65881;52.438;16.744;2023-10-31T23:04:33;5.28;;;3.53;;
76935;SDS011;65881;52.438;16.744;2023-10-31T23:06:59;5.25;;;3.90;;
76935;SDS011;65881;52.438;16.744;2023-10-31T23:09:25;4.80;;;4.15;;
76935;SDS011;65881;52.438;16.744;2023-10-31T23:11:51;4.15;;;3.42;;
76935;SDS011;65881;52.438;16.744;2023-10-31T23:14:20;5.03;;;2.92;;
76935;SDS011;65881;52.438;16.744;2023-10-31T23:16:45;4.47;;;3.30;;
76935;SDS011;65881;52.438;16.744;2023-10-31T23:28:29;3.78;;;3.10;;
76935;SDS011;65881;52.438;16.744;2023-10-31T23:34:40;4.82;;;3.67;;
76935;SDS011;65881;52.438;16.744;2023-10-31T23:37:10;2.85;;;2.42;;
76935;SDS011;65881;52.438;16.744;2023-10-31T23:46:00;4.40;;;2.75;;
76935;SDS011;65881;52.438;16.744;2023-10-31T23:58:34;3.90;;;2.58;;
